sensor_id;sensor_type;location;lat;lon;timestamp;temperature;humidity
20998;DHT22;10657;51.276;6.390;2022-11-15T00:00:56;9.50;99.90
20998;DHT22;10657;51.276;6.390;2022-11-15T00:03:27;9.50;99.90
20998;DHT22;10657;51.276;6.390;2022-11-15T00:05:54;9.50;99.90
20998;DHT22;10657;51.276;6.390;2022-11-15T00:08:21;9.50;99.90
20998;DHT22;10657;51.276;6.390;2022-11-15T00:10:58;9.60;99.90
20998;DHT22;10657;51.276;6.390;2022-11-15T00:13:25;9.60;99.90
20998;DHT22;10657;51.276;6.390;2022-11-15T00:15:52;9.60;99.90
20998;DHT22;10657;51.276;6.390;2022-11-15T00:18:19;9.60;99.90
20998;DHT22;10657;51.276;6.390;2022-11-15T00:20:45;9.60;99.90
20998;DHT22;10657;51.276;6.390;2022-11-15T00:23:12;9.60;99.90
20998;DHT22;10657;51.276;6.390;2022-11-15T00:25:38;9.60;99.90
20998;DHT22;10657;51.276;6.390;2022-11-15T00:28:05;9.60;99.90
20998;DHT22;10657;51.276;6.390;2022-11-15T00:30:32;9.60;99.90
20998;DHT22;10657;51.276;6.390;2022-11-15T00:33:06;9.60;99.90
20998;DHT22;10657;51.276;6.390;2022-11-15T00:35:33;9.60;99.90
20998;DHT22;10657;51.276;6.390;2022-11-15T00:38:01;9.60;99.90
20998;DHT22;10657;51.276;6.390;2022-11-15T00:40:28;9.60;99.90
20998;DHT22;10657;51.276;6.390;2022-11-15T00:42:55;9.60;99.90
20998;DHT22;10657;51.276;6.390;2022-11-15T00:45:21;9.60;99.90
20998;DHT22;10657;51.276;6.390;2022-11-15T00:47:48;9.60;99.90
20998;DHT22;10657;51.276;6.390;2022-11-15T00:50:15;9.60;99.90
20998;DHT22;10657;51.276;6.390;2022-11-15T00:52:42;9.60;99.90
20998;DHT22;10657;51.276;6.390;2022-11-15T00:55:14;9.60;99.90
20998;DHT22;10657;51.276;6.390;2022-11-15T00:57:41;9.60;99.90
20998;DHT22;10657;51.276;6.390;2022-11-15T01:00:08;9.60;99.90
20998;DHT22;10657;51.276;6.390;2022-11-15T01:02:35;9.60;99.90
20998;DHT22;10657;51.276;6.390;2022-11-15T01:05:02;9.60;99.90
20998;DHT22;10657;51.276;6.390;2022-11-15T01:07:29;9.70;99.90
20998;DHT22;10657;51.276;6.390;2022-11-15T01:09:56;9.70;99.90
20998;DHT22;10657;51.276;6.390;2022-11-15T01:12:22;9.70;99.90
20998;DHT22;10657;51.276;6.390;2022-11-15T01:14:49;9.80;99.90
20998;DHT22;10657;51.276;6.390;2022-11-15T01:17:16;9.70;99.90
20998;DHT22;10657;51.276;6.390;2022-11-15T01:19:43;9.70;99.90
20998;DHT22;10657;51.276;6.390;2022-11-15T01:22:09;9.70;99.90
20998;DHT22;10657;51.276;6.390;2022-11-15T01:24:36;9.80;99.90
20998;DHT22;10657;51.276;6.390;2022-11-15T01:27:03;9.70;99.90
20998;DHT22;10657;51.276;6.390;2022-11-15T01:29:29;9.70;99.90
20998;DHT22;10657;51.276;6.390;2022-11-15T01:31:56;9.60;99.90
20998;DHT22;10657;51.276;6.390;2022-11-15T01:34:22;9.70;99.90
20998;DHT22;10657;51.276;6.390;2022-11-15T01:36:49;9.70;99.90
20998;DHT22;10657;51.276;6.390;2022-11-15T01:39:16;9.70;99.90
20998;DHT22;10657;51.276;6.390;2022-11-15T01:41:43;9.70;99.90
20998;DHT22;10657;51.276;6.390;2022-11-15T01:46:55;9.70;99.90
20998;DHT22;10657;51.276;6.390;2022-11-15T01:49:23;9.80;99.90
20998;DHT22;10657;51.276;6.390;2022-11-15T01:51:50;9.80;99.90
20998;DHT22;10657;51.276;6.390;2022-11-15T01:54:20;9.80;99.90
20998;DHT22;10657;51.276;6.390;2022-11-15T01:57:01;9.80;99.90
20998;DHT22;10657;51.276;6.390;2022-11-15T01:59:29;9.80;99.90
20998;DHT22;10657;51.276;6.390;2022-11-15T02:01:56;9.90;99.90
20998;DHT22;10657;51.276;6.390;2022-11-15T02:04:28;9.80;99.90
20998;DHT22;10657;51.276;6.390;2022-11-15T02:06:55;9.80;99.90
20998;DHT22;10657;51.276;6.390;2022-11-15T02:09:22;9.90;99.90
20998;DHT22;10657;51.276;6.390;2022-11-15T02:11:50;9.90;99.90
20998;DHT22;10657;51.276;6.390;2022-11-15T02:14:19;9.90;99.90
20998;DHT22;10657;51.276;6.390;2022-11-15T02:17:07;9.90;99.90
20998;DHT22;10657;51.276;6.390;2022-11-15T02:25:37;10.00;99.90
20998;DHT22;10657;51.276;6.390;2022-11-15T02:31:28;10.00;99.90
20998;DHT22;10657;51.276;6.390;2022-11-15T02:39:34;10.00;99.90
20998;DHT22;10657;51.276;6.390;2022-11-15T02:42:12;10.00;99.90
20998;DHT22;10657;51.276;6.390;2022-11-15T02:45:02;10.10;99.90
20998;DHT22;10657;51.276;6.390;2022-11-15T02:47:32;10.10;99.90
20998;DHT22;10657;51.276;6.390;2022-11-15T02:50:08;10.10;99.90
20998;DHT22;10657;51.276;6.390;2022-11-15T02:52:35;10.20;99.90
20998;DHT22;10657;51.276;6.390;2022-11-15T02:55:02;10.20;99.90
20998;DHT22;10657;51.276;6.390;2022-11-15T02:58:14;10.20;99.90
20998;DHT22;10657;51.276;6.390;2022-11-15T03:01:04;10.30;99.90
20998;DHT22;10657;51.276;6.390;2022-11-15T03:03:41;10.30;99.90
20998;DHT22;10657;51.276;6.390;2022-11-15T03:06:24;10.30;99.90
20998;DHT22;10657;51.276;6.390;2022-11-15T03:11:59;10.30;99.90
20998;DHT22;10657;51.276;6.390;2022-11-15T03:14:34;10.30;99.90
20998;DHT22;10657;51.276;6.390;2022-11-15T03:17:23;10.30;99.90
20998;DHT22;10657;51.276;6.390;2022-11-15T03:20:00;10.40;99.90
20998;DHT22;10657;51.276;6.390;2022-11-15T03:22:30;10.40;99.90
20998;DHT22;10657;51.276;6.390;2022-11-15T03:25:04;10.40;99.90
20998;DHT22;10657;51.276;6.390;2022-11-15T03:27:35;10.50;99.90
20998;DHT22;10657;51.276;6.390;2022-11-15T03:30:06;10.50;99.90
20998;DHT22;10657;51.276;6.390;2022-11-15T03:32:40;10.50;99.90
20998;DHT22;10657;51.276;6.390;2022-11-15T03:35:15;10.50;99.90
20998;DHT22;10657;51.276;6.390;2022-11-15T03:37:49;10.50;99.90
20998;DHT22;10657;51.276;6.390;2022-11-15T03:40:17;10.50;99.90
20998;DHT22;10657;51.276;6.390;2022-11-15T03:42:51;10.50;99.90
20998;DHT22;10657;51.276;6.390;2022-11-15T03:45:33;10.50;99.90
20998;DHT22;10657;51.276;6.390;2022-11-15T03:48:07;10.50;99.90
20998;DHT22;10657;51.276;6.390;2022-11-15T03:50:37;10.50;99.90
20998;DHT22;10657;51.276;6.390;2022-11-15T03:53:04;10.50;99.90
20998;DHT22;10657;51.276;6.390;2022-11-15T03:55:31;10.50;99.90
20998;DHT22;10657;51.276;6.390;2022-11-15T03:58:11;10.50;99.90
20998;DHT22;10657;51.276;6.390;2022-11-15T04:00:37;10.50;99.90
20998;DHT22;10657;51.276;6.390;2022-11-15T04:03:04;10.50;99.90
20998;DHT22;10657;51.276;6.390;2022-11-15T04:05:31;10.50;99.90
20998;DHT22;10657;51.276;6.390;2022-11-15T04:07:57;10.60;99.90
20998;DHT22;10657;51.276;6.390;2022-11-15T04:10:24;10.50;99.90
20998;DHT22;10657;51.276;6.390;2022-11-15T04:12:51;10.50;99.90
20998;DHT22;10657;51.276;6.390;2022-11-15T04:15:21;10.60;99.90
20998;DHT22;10657;51.276;6.390;2022-11-15T04:17:55;10.60;99.90
20998;DHT22;10657;51.276;6.390;2022-11-15T04:20:28;10.60;99.90
20998;DHT22;10657;51.276;6.390;2022-11-15T04:23:16;10.60;99.90
20998;DHT22;10657;51.276;6.390;2022-11-15T04:26:05;10.60;99.90
20998;DHT22;10657;51.276;6.390;2022-11-15T04:28:32;10.60;99.90
20998;DHT22;10657;51.276;6.390;2022-11-15T04:30:59;10.60;99.90
20998;DHT22;10657;51.276;6.390;2022-11-15T04:33:25;10.50;99.90
20998;DHT22;10657;51.276;6.390;2022-11-15T04:35:52;10.50;99.90
20998;DHT22;10657;51.276;6.390;2022-11-15T04:38:37;10.50;99.90
20998;DHT22;10657;51.276;6.390;2022-11-15T04:41:04;10.50;99.90
20998;DHT22;10657;51.276;6.390;2022-11-15T04:43:30;10.50;99.90
20998;DHT22;10657;51.276;6.390;2022-11-15T04:45:58;10.60;99.90
20998;DHT22;10657;51.276;6.390;2022-11-15T04:48:24;10.50;99.90
20998;DHT22;10657;51.276;6.390;2022-11-15T04:50:51;10.50;99.90
20998;DHT22;10657;51.276;6.390;2022-11-15T04:53:18;10.50;99.90
20998;DHT22;10657;51.276;6.390;2022-11-15T04:55:45;10.50;99.90
20998;DHT22;10657;51.276;6.390;2022-11-15T04:58:12;10.50;99.90
20998;DHT22;10657;51.276;6.390;2022-11-15T05:00:38;10.50;99.90
20998;DHT22;10657;51.276;6.390;2022-11-15T05:03:06;10.50;99.90
20998;DHT22;10657;51.276;6.390;2022-11-15T05:05:51;10.50;99.90
20998;DHT22;10657;51.276;6.390;2022-11-15T05:08:17;10.50;99.90
20998;DHT22;10657;51.276;6.390;2022-11-15T05:10:44;10.50;99.90
20998;DHT22;10657;51.276;6.390;2022-11-15T05:13:11;10.50;99.90
20998;DHT22;10657;51.276;6.390;2022-11-15T05:15:37;10.50;99.90
20998;DHT22;10657;51.276;6.390;2022-11-15T05:18:04;10.50;99.90
20998;DHT22;10657;51.276;6.390;2022-11-15T05:20:31;10.60;99.90
20998;DHT22;10657;51.276;6.390;2022-11-15T05:22:57;10.60;99.90
20998;DHT22;10657;51.276;6.390;2022-11-15T05:25:24;10.60;99.90
20998;DHT22;10657;51.276;6.390;2022-11-15T05:27:51;10.60;99.90
20998;DHT22;10657;51.276;6.390;2022-11-15T05:30:18;10.60;99.90
20998;DHT22;10657;51.276;6.390;2022-11-15T05:32:45;10.60;99.90
20998;DHT22;10657;51.276;6.390;2022-11-15T05:35:37;10.70;99.90
20998;DHT22;10657;51.276;6.390;2022-11-15T05:38:05;10.70;99.90
20998;DHT22;10657;51.276;6.390;2022-11-15T05:40:32;10.70;99.90
20998;DHT22;10657;51.276;6.390;2022-11-15T05:43:00;10.70;99.90
20998;DHT22;10657;51.276;6.390;2022-11-15T05:45:29;10.70;99.90
20998;DHT22;10657;51.276;6.390;2022-11-15T05:47:57;10.70;99.90
20998;DHT22;10657;51.276;6.390;2022-11-15T05:50:26;10.70;99.90
20998;DHT22;10657;51.276;6.390;2022-11-15T05:52:54;10.70;99.90
20998;DHT22;10657;51.276;6.390;2022-11-15T05:55:27;10.70;99.90
20998;DHT22;10657;51.276;6.390;2022-11-15T05:57:54;10.80;99.90
20998;DHT22;10657;51.276;6.390;2022-11-15T06:00:21;10.80;99.90
20998;DHT22;10657;51.276;6.390;2022-11-15T06:02:47;10.80;99.90
20998;DHT22;10657;51.276;6.390;2022-11-15T06:05:14;10.90;99.90
20998;DHT22;10657;51.276;6.390;2022-11-15T06:07:40;10.90;99.90
20998;DHT22;10657;51.276;6.390;2022-11-15T06:10:08;10.90;99.90
20998;DHT22;10657;51.276;6.390;2022-11-15T06:12:34;10.90;99.90
20998;DHT22;10657;51.276;6.390;2022-11-15T06:15:01;11.00;99.90
20998;DHT22;10657;51.276;6.390;2022-11-15T06:17:28;11.00;99.90
20998;DHT22;10657;51.276;6.390;2022-11-15T06:19:55;11.00;99.90
20998;DHT22;10657;51.276;6.390;2022-11-15T06:22:21;11.00;99.90
20998;DHT22;10657;51.276;6.390;2022-11-15T06:24:48;11.00;99.90
20998;DHT22;10657;51.276;6.390;2022-11-15T06:27:15;11.00;99.90
20998;DHT22;10657;51.276;6.390;2022-11-15T06:29:41;11.00;99.90
20998;DHT22;10657;51.276;6.390;2022-11-15T06:32:08;11.00;99.90
20998;DHT22;10657;51.276;6.390;2022-11-15T06:34:35;11.00;99.90
20998;DHT22;10657;51.276;6.390;2022-11-15T06:37:02;11.00;99.90
20998;DHT22;10657;51.276;6.390;2022-11-15T06:39:29;11.00;99.90
20998;DHT22;10657;51.276;6.390;2022-11-15T06:41:55;11.00;99.90
20998;DHT22;10657;51.276;6.390;2022-11-15T06:44:22;11.00;99.90
20998;DHT22;10657;51.276;6.390;2022-11-15T06:46:49;11.00;99.90
20998;DHT22;10657;51.276;6.390;2022-11-15T06:49:15;11.10;99.90
20998;DHT22;10657;51.276;6.390;2022-11-15T06:51:43;11.10;99.90
20998;DHT22;10657;51.276;6.390;2022-11-15T06:54:09;11.20;99.90
20998;DHT22;10657;51.276;6.390;2022-11-15T06:56:36;11.20;99.90
20998;DHT22;10657;51.276;6.390;2022-11-15T06:59:03;11.30;99.90
20998;DHT22;10657;51.276;6.390;2022-11-15T07:01:29;11.30;99.90
20998;DHT22;10657;51.276;6.390;2022-11-15T07:03:56;11.40;99.90
20998;DHT22;10657;51.276;6.390;2022-11-15T07:06:22;11.40;99.90
20998;DHT22;10657;51.276;6.390;2022-11-15T07:08:49;11.40;99.90
20998;DHT22;10657;51.276;6.390;2022-11-15T07:11:15;11.40;99.90
20998;DHT22;10657;51.276;6.390;2022-11-15T07:13:42;11.40;99.90
20998;DHT22;10657;51.276;6.390;2022-11-15T07:16:09;11.40;99.90
20998;DHT22;10657;51.276;6.390;2022-11-15T07:18:38;11.40;99.90
20998;DHT22;10657;51.276;6.390;2022-11-15T07:21:09;11.40;99.90
20998;DHT22;10657;51.276;6.390;2022-11-15T07:23:37;11.40;99.90
20998;DHT22;10657;51.276;6.390;2022-11-15T07:26:05;11.40;99.90
20998;DHT22;10657;51.276;6.390;2022-11-15T07:28:32;11.40;99.90
20998;DHT22;10657;51.276;6.390;2022-11-15T07:31:02;11.40;99.90
20998;DHT22;10657;51.276;6.390;2022-11-15T07:33:29;11.40;99.90
20998;DHT22;10657;51.276;6.390;2022-11-15T07:35:59;11.40;99.90
20998;DHT22;10657;51.276;6.390;2022-11-15T07:38:28;11.40;99.90
20998;DHT22;10657;51.276;6.390;2022-11-15T07:41:00;11.40;99.90
20998;DHT22;10657;51.276;6.390;2022-11-15T07:43:27;11.30;99.90
20998;DHT22;10657;51.276;6.390;2022-11-15T07:45:55;11.30;99.90
20998;DHT22;10657;51.276;6.390;2022-11-15T07:48:25;11.30;99.90
20998;DHT22;10657;51.276;6.390;2022-11-15T07:51:14;11.30;99.90
20998;DHT22;10657;51.276;6.390;2022-11-15T07:53:42;11.20;99.90
20998;DHT22;10657;51.276;6.390;2022-11-15T07:56:10;11.20;99.90
20998;DHT22;10657;51.276;6.390;2022-11-15T07:58:36;11.20;99.90
20998;DHT22;10657;51.276;6.390;2022-11-15T08:01:07;11.10;99.90
20998;DHT22;10657;51.276;6.390;2022-11-15T08:03:34;11.10;99.90
20998;DHT22;10657;51.276;6.390;2022-11-15T08:06:01;11.10;99.90
20998;DHT22;10657;51.276;6.390;2022-11-15T08:08:28;11.10;99.90
20998;DHT22;10657;51.276;6.390;2022-11-15T08:10:57;11.10;99.90
20998;DHT22;10657;51.276;6.390;2022-11-15T08:13:24;11.20;99.90
20998;DHT22;10657;51.276;6.390;2022-11-15T08:15:50;11.20;99.90
20998;DHT22;10657;51.276;6.390;2022-11-15T08:18:23;11.20;99.90
20998;DHT22;10657;51.276;6.390;2022-11-15T08:20:49;11.20;99.90
20998;DHT22;10657;51.276;6.390;2022-11-15T08:23:16;11.20;99.90
20998;DHT22;10657;51.276;6.390;2022-11-15T08:25:43;11.20;99.90
20998;DHT22;10657;51.276;6.390;2022-11-15T08:28:10;11.30;99.90
20998;DHT22;10657;51.276;6.390;2022-11-15T08:30:38;11.30;99.90
20998;DHT22;10657;51.276;6.390;2022-11-15T08:33:11;11.30;99.90
20998;DHT22;10657;51.276;6.390;2022-11-15T08:35:39;11.30;99.90
20998;DHT22;10657;51.276;6.390;2022-11-15T08:38:06;11.40;99.90
20998;DHT22;10657;51.276;6.390;2022-11-15T08:40:32;11.40;99.90
20998;DHT22;10657;51.276;6.390;2022-11-15T08:42:59;11.40;99.90
20998;DHT22;10657;51.276;6.390;2022-11-15T08:45:29;11.40;99.90
20998;DHT22;10657;51.276;6.390;2022-11-15T08:47:56;11.50;99.90
20998;DHT22;10657;51.276;6.390;2022-11-15T08:50:23;11.50;99.90
20998;DHT22;10657;51.276;6.390;2022-11-15T08:52:49;11.50;99.90
20998;DHT22;10657;51.276;6.390;2022-11-15T08:55:16;11.50;99.90
20998;DHT22;10657;51.276;6.390;2022-11-15T08:57:43;11.50;99.90
20998;DHT22;10657;51.276;6.390;2022-11-15T09:00:11;11.50;99.90
20998;DHT22;10657;51.276;6.390;2022-11-15T09:02:39;11.50;99.90
20998;DHT22;10657;51.276;6.390;2022-11-15T09:05:06;11.50;99.90
20998;DHT22;10657;51.276;6.390;2022-11-15T09:07:33;11.50;99.90
20998;DHT22;10657;51.276;6.390;2022-11-15T09:10:00;11.50;99.90
20998;DHT22;10657;51.276;6.390;2022-11-15T09:12:27;11.50;99.90
20998;DHT22;10657;51.276;6.390;2022-11-15T09:14:54;11.50;99.90
20998;DHT22;10657;51.276;6.390;2022-11-15T09:17:21;11.50;99.90
20998;DHT22;10657;51.276;6.390;2022-11-15T09:19:50;11.50;99.90
20998;DHT22;10657;51.276;6.390;2022-11-15T09:22:17;11.50;99.90
20998;DHT22;10657;51.276;6.390;2022-11-15T09:24:44;11.50;99.90
20998;DHT22;10657;51.276;6.390;2022-11-15T09:27:10;11.60;99.90
20998;DHT22;10657;51.276;6.390;2022-11-15T09:29:38;11.60;99.90
20998;DHT22;10657;51.276;6.390;2022-11-15T09:32:04;11.60;99.90
20998;DHT22;10657;51.276;6.390;2022-11-15T09:34:31;11.70;99.90
20998;DHT22;10657;51.276;6.390;2022-11-15T09:36:58;11.70;99.90
20998;DHT22;10657;51.276;6.390;2022-11-15T09:39:24;11.70;99.90
20998;DHT22;10657;51.276;6.390;2022-11-15T09:45:19;11.70;99.90
20998;DHT22;10657;51.276;6.390;2022-11-15T09:48:13;11.80;99.90
20998;DHT22;10657;51.276;6.390;2022-11-15T09:50:50;11.80;99.90
20998;DHT22;10657;51.276;6.390;2022-11-15T09:53:29;11.80;99.90
20998;DHT22;10657;51.276;6.390;2022-11-15T09:56:22;11.80;99.90
20998;DHT22;10657;51.276;6.390;2022-11-15T10:04:23;12.00;99.90
20998;DHT22;10657;51.276;6.390;2022-11-15T10:09:38;12.00;99.90
20998;DHT22;10657;51.276;6.390;2022-11-15T10:12:07;12.00;99.90
20998;DHT22;10657;51.276;6.390;2022-11-15T10:14:35;12.10;99.90
20998;DHT22;10657;51.276;6.390;2022-11-15T10:20:20;12.10;99.90
20998;DHT22;10657;51.276;6.390;2022-11-15T10:22:55;12.20;99.90
20998;DHT22;10657;51.276;6.390;2022-11-15T10:25:24;12.20;99.90
20998;DHT22;10657;51.276;6.390;2022-11-15T10:28:27;12.20;99.90
20998;DHT22;10657;51.276;6.390;2022-11-15T10:30:58;12.30;99.90
20998;DHT22;10657;51.276;6.390;2022-11-15T10:33:35;12.40;99.90
20998;DHT22;10657;51.276;6.390;2022-11-15T10:41:21;12.50;99.90
20998;DHT22;10657;51.276;6.390;2022-11-15T10:46:34;12.70;99.90
20998;DHT22;10657;51.276;6.390;2022-11-15T10:49:22;12.70;99.90
20998;DHT22;10657;51.276;6.390;2022-11-15T10:54:37;12.80;99.90
20998;DHT22;10657;51.276;6.390;2022-11-15T10:57:16;12.90;99.90
20998;DHT22;10657;51.276;6.390;2022-11-15T11:00:05;13.00;99.90
20998;DHT22;10657;51.276;6.390;2022-11-15T11:02:39;13.10;99.90
20998;DHT22;10657;51.276;6.390;2022-11-15T11:05:35;13.10;99.90
20998;DHT22;10657;51.276;6.390;2022-11-15T11:10:38;13.20;99.90
20998;DHT22;10657;51.276;6.390;2022-11-15T11:13:30;13.20;99.90
20998;DHT22;10657;51.276;6.390;2022-11-15T11:19:03;13.30;99.90
20998;DHT22;10657;51.276;6.390;2022-11-15T11:35:35;13.20;99.90
20998;DHT22;10657;51.276;6.390;2022-11-15T11:48:46;13.10;99.90
20998;DHT22;10657;51.276;6.390;2022-11-15T11:51:23;13.20;99.90
20998;DHT22;10657;51.276;6.390;2022-11-15T11:56:53;13.30;99.90
20998;DHT22;10657;51.276;6.390;2022-11-15T11:59:42;13.40;99.90
20998;DHT22;10657;51.276;6.390;2022-11-15T12:02:18;13.60;99.90
20998;DHT22;10657;51.276;6.390;2022-11-15T12:04:52;13.60;99.90
20998;DHT22;10657;51.276;6.390;2022-11-15T12:07:25;13.60;99.90
20998;DHT22;10657;51.276;6.390;2022-11-15T12:10:04;13.70;99.90
20998;DHT22;10657;51.276;6.390;2022-11-15T12:15:26;14.00;99.90
20998;DHT22;10657;51.276;6.390;2022-11-15T12:17:55;14.10;99.90
20998;DHT22;10657;51.276;6.390;2022-11-15T12:20:30;14.10;99.90
20998;DHT22;10657;51.276;6.390;2022-11-15T12:28:37;14.40;99.90
20998;DHT22;10657;51.276;6.390;2022-11-15T12:31:51;14.50;99.90
20998;DHT22;10657;51.276;6.390;2022-11-15T12:36:49;14.70;99.90
20998;DHT22;10657;51.276;6.390;2022-11-15T12:39:17;14.80;99.90
20998;DHT22;10657;51.276;6.390;2022-11-15T12:47:01;14.70;99.90
20998;DHT22;10657;51.276;6.390;2022-11-15T13:04:52;14.50;99.90
20998;DHT22;10657;51.276;6.390;2022-11-15T13:10:31;14.40;99.90
20998;DHT22;10657;51.276;6.390;2022-11-15T13:13:02;14.40;99.90
20998;DHT22;10657;51.276;6.390;2022-11-15T13:15:34;14.50;99.90
20998;DHT22;10657;51.276;6.390;2022-11-15T13:18:38;14.60;99.90
20998;DHT22;10657;51.276;6.390;2022-11-15T13:21:20;14.60;99.90
20998;DHT22;10657;51.276;6.390;2022-11-15T13:24:11;14.50;99.90
20998;DHT22;10657;51.276;6.390;2022-11-15T13:26:39;14.50;99.90
20998;DHT22;10657;51.276;6.390;2022-11-15T13:29:17;14.40;99.90
20998;DHT22;10657;51.276;6.390;2022-11-15T13:31:45;14.40;99.90
20998;DHT22;10657;51.276;6.390;2022-11-15T13:34:28;14.50;99.90
20998;DHT22;10657;51.276;6.390;2022-11-15T13:37:33;14.60;99.90
20998;DHT22;10657;51.276;6.390;2022-11-15T13:40:19;14.60;99.90
20998;DHT22;10657;51.276;6.390;2022-11-15T13:42:46;14.60;99.90
20998;DHT22;10657;51.276;6.390;2022-11-15T13:45:16;14.60;99.90
20998;DHT22;10657;51.276;6.390;2022-11-15T13:47:43;14.70;99.90
20998;DHT22;10657;51.276;6.390;2022-11-15T13:50:11;14.70;99.90
20998;DHT22;10657;51.276;6.390;2022-11-15T13:52:41;14.50;99.90
20998;DHT22;10657;51.276;6.390;2022-11-15T13:57:53;14.40;99.90
20998;DHT22;10657;51.276;6.390;2022-11-15T14:02:54;14.30;99.90
20998;DHT22;10657;51.276;6.390;2022-11-15T14:05:23;14.20;99.90
20998;DHT22;10657;51.276;6.390;2022-11-15T14:07:59;14.20;99.90
20998;DHT22;10657;51.276;6.390;2022-11-15T14:10:36;14.10;99.90
20998;DHT22;10657;51.276;6.390;2022-11-15T14:13:09;14.20;99.90
20998;DHT22;10657;51.276;6.390;2022-11-15T14:15:38;14.10;99.90
20998;DHT22;10657;51.276;6.390;2022-11-15T14:18:05;14.10;99.90
20998;DHT22;10657;51.276;6.390;2022-11-15T14:20:38;14.00;99.90
20998;DHT22;10657;51.276;6.390;2022-11-15T14:23:34;14.00;99.90
20998;DHT22;10657;51.276;6.390;2022-11-15T14:26:01;14.00;99.90
20998;DHT22;10657;51.276;6.390;2022-11-15T14:28:33;14.00;99.90
20998;DHT22;10657;51.276;6.390;2022-11-15T14:31:10;14.00;99.90
20998;DHT22;10657;51.276;6.390;2022-11-15T14:33:38;14.10;99.90
20998;DHT22;10657;51.276;6.390;2022-11-15T14:36:15;14.00;99.90
20998;DHT22;10657;51.276;6.390;2022-11-15T14:38:42;14.00;99.90
20998;DHT22;10657;51.276;6.390;2022-11-15T14:41:23;14.00;99.90
20998;DHT22;10657;51.276;6.390;2022-11-15T14:43:51;14.00;99.90
20998;DHT22;10657;51.276;6.390;2022-11-15T14:46:18;14.00;99.90
20998;DHT22;10657;51.276;6.390;2022-11-15T14:48:45;14.00;99.90
20998;DHT22;10657;51.276;6.390;2022-11-15T14:51:18;14.00;99.90
20998;DHT22;10657;51.276;6.390;2022-11-15T14:53:45;14.00;99.90
20998;DHT22;10657;51.276;6.390;2022-11-15T14:56:13;14.00;99.90
20998;DHT22;10657;51.276;6.390;2022-11-15T14:58:40;13.90;99.90
20998;DHT22;10657;51.276;6.390;2022-11-15T15:01:22;13.90;99.90
20998;DHT22;10657;51.276;6.390;2022-11-15T15:03:49;13.90;99.90
20998;DHT22;10657;51.276;6.390;2022-11-15T15:06:18;13.90;99.90
20998;DHT22;10657;51.276;6.390;2022-11-15T15:08:45;13.80;99.90
20998;DHT22;10657;51.276;6.390;2022-11-15T15:11:28;13.80;99.90
20998;DHT22;10657;51.276;6.390;2022-11-15T15:13:56;13.80;99.90
20998;DHT22;10657;51.276;6.390;2022-11-15T15:16:24;13.70;99.90
20998;DHT22;10657;51.276;6.390;2022-11-15T15:18:51;13.70;99.90
20998;DHT22;10657;51.276;6.390;2022-11-15T15:21:23;13.70;99.90
20998;DHT22;10657;51.276;6.390;2022-11-15T15:23:51;13.80;99.90
20998;DHT22;10657;51.276;6.390;2022-11-15T15:26:17;13.70;99.90
20998;DHT22;10657;51.276;6.390;2022-11-15T15:28:44;13.70;99.90
20998;DHT22;10657;51.276;6.390;2022-11-15T15:31:11;13.60;99.90
20998;DHT22;10657;51.276;6.390;2022-11-15T15:33:37;13.60;99.90
20998;DHT22;10657;51.276;6.390;2022-11-15T15:36:04;13.60;99.90
20998;DHT22;10657;51.276;6.390;2022-11-15T15:38:31;13.60;99.90
20998;DHT22;10657;51.276;6.390;2022-11-15T15:40:58;13.60;99.90
20998;DHT22;10657;51.276;6.390;2022-11-15T15:43:28;13.60;99.90
20998;DHT22;10657;51.276;6.390;2022-11-15T15:45:54;13.60;99.90
20998;DHT22;10657;51.276;6.390;2022-11-15T15:48:21;13.50;99.90
20998;DHT22;10657;51.276;6.390;2022-11-15T15:50:48;13.50;99.90
20998;DHT22;10657;51.276;6.390;2022-11-15T15:53:15;13.50;99.90
20998;DHT22;10657;51.276;6.390;2022-11-15T15:55:43;13.60;99.90
20998;DHT22;10657;51.276;6.390;2022-11-15T15:58:10;13.60;99.90
20998;DHT22;10657;51.276;6.390;2022-11-15T16:00:36;13.60;99.90
20998;DHT22;10657;51.276;6.390;2022-11-15T16:03:03;13.60;99.90
20998;DHT22;10657;51.276;6.390;2022-11-15T16:05:30;13.60;99.90
20998;DHT22;10657;51.276;6.390;2022-11-15T16:07:57;13.60;99.90
20998;DHT22;10657;51.276;6.390;2022-11-15T16:10:29;13.60;99.90
20998;DHT22;10657;51.276;6.390;2022-11-15T16:12:57;13.60;99.90
20998;DHT22;10657;51.276;6.390;2022-11-15T16:15:26;13.60;99.90
20998;DHT22;10657;51.276;6.390;2022-11-15T16:17:55;13.50;99.90
20998;DHT22;10657;51.276;6.390;2022-11-15T16:20:44;13.40;99.90
20998;DHT22;10657;51.276;6.390;2022-11-15T16:23:16;13.50;99.90
20998;DHT22;10657;51.276;6.390;2022-11-15T16:25:50;13.60;99.90
20998;DHT22;10657;51.276;6.390;2022-11-15T16:30:49;13.60;99.90
20998;DHT22;10657;51.276;6.390;2022-11-15T16:33:25;13.60;99.90
20998;DHT22;10657;51.276;6.390;2022-11-15T16:35:51;13.60;99.90
20998;DHT22;10657;51.276;6.390;2022-11-15T16:38:18;13.50;99.90
20998;DHT22;10657;51.276;6.390;2022-11-15T16:40:45;13.50;99.90
20998;DHT22;10657;51.276;6.390;2022-11-15T16:43:11;13.50;99.90
20998;DHT22;10657;51.276;6.390;2022-11-15T16:45:38;13.50;99.90
20998;DHT22;10657;51.276;6.390;2022-11-15T16:48:05;13.50;99.90
20998;DHT22;10657;51.276;6.390;2022-11-15T16:50:34;13.40;99.90
20998;DHT22;10657;51.276;6.390;2022-11-15T16:53:06;13.40;99.90
20998;DHT22;10657;51.276;6.390;2022-11-15T16:55:33;13.40;99.90
20998;DHT22;10657;51.276;6.390;2022-11-15T16:58:00;13.40;99.90
20998;DHT22;10657;51.276;6.390;2022-11-15T17:00:27;13.40;99.90
20998;DHT22;10657;51.276;6.390;2022-11-15T17:02:54;13.40;99.90
20998;DHT22;10657;51.276;6.390;2022-11-15T17:05:23;13.40;99.90
20998;DHT22;10657;51.276;6.390;2022-11-15T17:07:50;13.50;99.90
20998;DHT22;10657;51.276;6.390;2022-11-15T17:10:21;13.40;99.90
20998;DHT22;10657;51.276;6.390;2022-11-15T17:12:48;13.40;99.90
20998;DHT22;10657;51.276;6.390;2022-11-15T17:15:16;13.40;99.90
20998;DHT22;10657;51.276;6.390;2022-11-15T17:17:43;13.40;99.90
20998;DHT22;10657;51.276;6.390;2022-11-15T17:20:15;13.40;99.90
20998;DHT22;10657;51.276;6.390;2022-11-15T17:22:42;13.40;99.90
20998;DHT22;10657;51.276;6.390;2022-11-15T17:25:09;13.40;99.90
20998;DHT22;10657;51.276;6.390;2022-11-15T17:27:36;13.40;99.90
20998;DHT22;10657;51.276;6.390;2022-11-15T17:30:03;13.40;99.90
20998;DHT22;10657;51.276;6.390;2022-11-15T17:32:30;13.40;99.90
20998;DHT22;10657;51.276;6.390;2022-11-15T17:34:57;13.40;99.90
20998;DHT22;10657;51.276;6.390;2022-11-15T17:37:23;13.40;99.90
20998;DHT22;10657;51.276;6.390;2022-11-15T17:39:50;13.40;99.90
20998;DHT22;10657;51.276;6.390;2022-11-15T17:42:16;13.30;99.90
20998;DHT22;10657;51.276;6.390;2022-11-15T17:44:43;13.30;99.90
20998;DHT22;10657;51.276;6.390;2022-11-15T17:47:10;13.30;99.90
20998;DHT22;10657;51.276;6.390;2022-11-15T17:49:36;13.30;99.90
20998;DHT22;10657;51.276;6.390;2022-11-15T17:52:06;13.30;99.90
20998;DHT22;10657;51.276;6.390;2022-11-15T17:54:33;13.30;99.90